sensor_id;sensor_type;location;lat;lon;timestamp;P1;durP1;ratioP1;P2;durP2;ratioP2
73919;SDS011;62266;53.348;-1.496;2023-04-03T00:01:14;6.75;;;3.50;;
73919;SDS011;62266;53.348;-1.496;2023-04-03T00:04:01;5.75;;;3.40;;
73919;SDS011;62266;53.348;-1.496;2023-04-03T00:06:53;5.90;;;3.30;;
73919;SDS011;62266;53.348;-1.496;2023-04-03T00:09:42;8.73;;;3.40;;
73919;SDS011;62266;53.348;-1.496;2023-04-03T00:12:30;6.88;;;3.03;;
73919;SDS011;62266;53.348;-1.496;2023-04-03T00:15:15;7.07;;;2.95;;
73919;SDS011;62266;53.348;-1.496;2023-04-03T00:17:59;6.22;;;2.95;;
73919;SDS011;62266;53.348;-1.496;2023-04-03T00:20:44;7.37;;;3.37;;
73919;SDS011;62266;53.348;-1.496;2023-04-03T00:23:28;6.38;;;3.17;;
73919;SDS011;62266;53.348;-1.496;2023-04-03T00:26:12;5.60;;;3.00;;
73919;SDS011;62266;53.348;-1.496;2023-04-03T00:28:56;8.07;;;3.22;;
73919;SDS011;62266;53.348;-1.496;2023-04-03T00:31:40;8.48;;;2.95;;
73919;SDS011;62266;53.348;-1.496;2023-04-03T00:34:25;8.47;;;3.07;;
73919;SDS011;62266;53.348;-1.496;2023-04-03T00:37:09;8.25;;;3.33;;
73919;SDS011;62266;53.348;-1.496;2023-04-03T00:39:54;8.55;;;3.13;;
73919;SDS011;62266;53.348;-1.496;2023-04-03T00:42:39;6.15;;;3.20;;
73919;SDS011;62266;53.348;-1.496;2023-04-03T00:45:33;7.05;;;3.08;;
73919;SDS011;62266;53.348;-1.496;2023-04-03T00:48:23;5.67;;;2.70;;
73919;SDS011;62266;53.348;-1.496;2023-04-03T00:51:24;3.60;;;2.40;;
73919;SDS011;62266;53.348;-1.496;2023-04-03T00:54:10;4.82;;;2.47;;
73919;SDS011;62266;53.348;-1.496;2023-04-03T00:56:55;5.55;;;2.83;;
73919;SDS011;62266;53.348;-1.496;2023-04-03T00:59:43;5.10;;;2.83;;
73919;SDS011;62266;53.348;-1.496;2023-04-03T01:02:32;6.10;;;2.63;;
73919;SDS011;62266;53.348;-1.496;2023-04-03T01:05:17;6.28;;;2.95;;
73919;SDS011;62266;53.348;-1.496;2023-04-03T01:08:03;7.18;;;2.70;;
73919;SDS011;62266;53.348;-1.496;2023-04-03T01:10:51;8.32;;;2.95;;
73919;SDS011;62266;53.348;-1.496;2023-04-03T01:13:35;4.43;;;2.67;;
73919;SDS011;62266;53.348;-1.496;2023-04-03T01:16:23;5.67;;;2.60;;
73919;SDS011;62266;53.348;-1.496;2023-04-03T01:19:08;7.70;;;2.95;;
73919;SDS011;62266;53.348;-1.496;2023-04-03T01:24:52;5.63;;;2.22;;
73919;SDS011;62266;53.348;-1.496;2023-04-03T01:27:36;7.15;;;2.58;;
73919;SDS011;62266;53.348;-1.496;2023-04-03T01:30:21;5.40;;;2.50;;
73919;SDS011;62266;53.348;-1.496;2023-04-03T01:33:10;7.03;;;3.03;;
73919;SDS011;62266;53.348;-1.496;2023-04-03T01:35:54;6.40;;;2.40;;
73919;SDS011;62266;53.348;-1.496;2023-04-03T01:38:39;8.60;;;2.53;;
73919;SDS011;62266;53.348;-1.496;2023-04-03T01:41:23;5.78;;;2.60;;
73919;SDS011;62266;53.348;-1.496;2023-04-03T01:44:07;8.50;;;2.73;;
73919;SDS011;62266;53.348;-1.496;2023-04-03T01:46:51;4.85;;;2.60;;
73919;SDS011;62266;53.348;-1.496;2023-04-03T01:49:36;6.70;;;2.60;;
73919;SDS011;62266;53.348;-1.496;2023-04-03T01:52:20;6.70;;;2.60;;
73919;SDS011;62266;53.348;-1.496;2023-04-03T01:55:04;7.07;;;2.85;;
73919;SDS011;62266;53.348;-1.496;2023-04-03T01:57:49;5.30;;;2.27;;
73919;SDS011;62266;53.348;-1.496;2023-04-03T02:00:33;5.03;;;2.50;;
73919;SDS011;62266;53.348;-1.496;2023-04-03T02:03:17;3.58;;;2.35;;
73919;SDS011;62266;53.348;-1.496;2023-04-03T02:06:02;6.70;;;2.38;;
73919;SDS011;62266;53.348;-1.496;2023-04-03T02:08:46;5.07;;;2.70;;
73919;SDS011;62266;53.348;-1.496;2023-04-03T02:11:31;4.33;;;2.57;;
73919;SDS011;62266;53.348;-1.496;2023-04-03T02:14:15;8.10;;;2.38;;
73919;SDS011;62266;53.348;-1.496;2023-04-03T02:17:00;6.57;;;2.28;;
73919;SDS011;62266;53.348;-1.496;2023-04-03T02:19:48;4.53;;;2.13;;
73919;SDS011;62266;53.348;-1.496;2023-04-03T02:22:33;6.18;;;2.45;;
73919;SDS011;62266;53.348;-1.496;2023-04-03T02:25:17;4.93;;;2.20;;
73919;SDS011;62266;53.348;-1.496;2023-04-03T02:28:02;5.32;;;2.45;;
73919;SDS011;62266;53.348;-1.496;2023-04-03T02:30:46;5.93;;;2.60;;
73919;SDS011;62266;53.348;-1.496;2023-04-03T02:33:30;6.10;;;2.35;;
73919;SDS011;62266;53.348;-1.496;2023-04-03T02:36:14;5.00;;;2.38;;
73919;SDS011;62266;53.348;-1.496;2023-04-03T02:38:59;6.13;;;2.80;;
73919;SDS011;62266;53.348;-1.496;2023-04-03T02:41:43;6.20;;;2.43;;
73919;SDS011;62266;53.348;-1.496;2023-04-03T02:44:27;6.78;;;2.08;;
73919;SDS011;62266;53.348;-1.496;2023-04-03T02:47:11;5.03;;;2.30;;
73919;SDS011;62266;53.348;-1.496;2023-04-03T02:49:55;4.53;;;2.60;;
73919;SDS011;62266;53.348;-1.496;2023-04-03T02:52:39;3.47;;;2.15;;
73919;SDS011;62266;53.348;-1.496;2023-04-03T02:55:23;6.73;;;2.43;;
73919;SDS011;62266;53.348;-1.496;2023-04-03T02:58:07;6.03;;;2.20;;
73919;SDS011;62266;53.348;-1.496;2023-04-03T03:00:52;8.30;;;2.45;;
73919;SDS011;62266;53.348;-1.496;2023-04-03T03:03:36;7.38;;;2.40;;
73919;SDS011;62266;53.348;-1.496;2023-04-03T03:06:20;5.65;;;2.38;;
73919;SDS011;62266;53.348;-1.496;2023-04-03T03:09:04;10.03;;;2.80;;
73919;SDS011;62266;53.348;-1.496;2023-04-03T03:11:49;4.97;;;2.42;;
73919;SDS011;62266;53.348;-1.496;2023-04-03T03:14:33;8.05;;;2.72;;
73919;SDS011;62266;53.348;-1.496;2023-04-03T03:17:18;6.25;;;2.80;;
73919;SDS011;62266;53.348;-1.496;2023-04-03T03:20:03;4.97;;;2.42;;
73919;SDS011;62266;53.348;-1.496;2023-04-03T03:22:47;4.90;;;2.60;;
73919;SDS011;62266;53.348;-1.496;2023-04-03T03:25:32;4.40;;;2.58;;
73919;SDS011;62266;53.348;-1.496;2023-04-03T03:28:15;7.05;;;2.50;;
73919;SDS011;62266;53.348;-1.496;2023-04-03T03:31:00;6.35;;;2.38;;
73919;SDS011;62266;53.348;-1.496;2023-04-03T03:33:44;5.80;;;2.08;;
73919;SDS011;62266;53.348;-1.496;2023-04-03T03:36:28;5.53;;;2.20;;
73919;SDS011;62266;53.348;-1.496;2023-04-03T03:39:13;4.60;;;2.38;;
73919;SDS011;62266;53.348;-1.496;2023-04-03T03:41:57;5.10;;;2.35;;
73919;SDS011;62266;53.348;-1.496;2023-04-03T03:44:41;9.18;;;2.50;;
73919;SDS011;62266;53.348;-1.496;2023-04-03T03:47:25;7.00;;;2.50;;
73919;SDS011;62266;53.348;-1.496;2023-04-03T03:50:09;8.30;;;2.87;;
73919;SDS011;62266;53.348;-1.496;2023-04-03T03:52:54;6.95;;;2.67;;
73919;SDS011;62266;53.348;-1.496;2023-04-03T03:55:38;4.85;;;2.40;;
73919;SDS011;62266;53.348;-1.496;2023-04-03T03:58:22;7.80;;;2.30;;
73919;SDS011;62266;53.348;-1.496;2023-04-03T04:01:06;5.72;;;2.05;;
73919;SDS011;62266;53.348;-1.496;2023-04-03T04:03:51;6.00;;;2.70;;
73919;SDS011;62266;53.348;-1.496;2023-04-03T04:06:35;6.00;;;2.42;;
73919;SDS011;62266;53.348;-1.496;2023-04-03T04:09:19;7.28;;;2.20;;
73919;SDS011;62266;53.348;-1.496;2023-04-03T04:12:03;4.78;;;1.83;;
73919;SDS011;62266;53.348;-1.496;2023-04-03T04:14:47;3.33;;;1.80;;
73919;SDS011;62266;53.348;-1.496;2023-04-03T04:17:31;6.07;;;2.27;;
73919;SDS011;62266;53.348;-1.496;2023-04-03T04:20:15;4.45;;;2.05;;
73919;SDS011;62266;53.348;-1.496;2023-04-03T04:23:00;5.75;;;2.40;;
73919;SDS011;62266;53.348;-1.496;2023-04-03T04:25:44;6.30;;;2.30;;
73919;SDS011;62266;53.348;-1.496;2023-04-03T04:28:29;6.07;;;2.25;;
73919;SDS011;62266;53.348;-1.496;2023-04-03T04:31:13;4.93;;;2.57;;
73919;SDS011;62266;53.348;-1.496;2023-04-03T04:33:57;5.45;;;2.80;;
73919;SDS011;62266;53.348;-1.496;2023-04-03T04:36:41;7.38;;;3.13;;
73919;SDS011;62266;53.348;-1.496;2023-04-03T04:39:26;5.32;;;2.22;;
73919;SDS011;62266;53.348;-1.496;2023-04-03T04:42:10;4.18;;;2.10;;
73919;SDS011;62266;53.348;-1.496;2023-04-03T04:44:56;5.13;;;2.30;;
73919;SDS011;62266;53.348;-1.496;2023-04-03T04:47:40;6.47;;;2.00;;
73919;SDS011;62266;53.348;-1.496;2023-04-03T04:50:24;3.67;;;2.15;;
73919;SDS011;62266;53.348;-1.496;2023-04-03T04:53:11;6.20;;;2.22;;
73919;SDS011;62266;53.348;-1.496;2023-04-03T04:55:56;5.00;;;2.10;;
73919;SDS011;62266;53.348;-1.496;2023-04-03T04:58:40;6.20;;;2.33;;
73919;SDS011;62266;53.348;-1.496;2023-04-03T05:01:24;4.70;;;2.22;;
73919;SDS011;62266;53.348;-1.496;2023-04-03T05:04:09;3.25;;;1.85;;
73919;SDS011;62266;53.348;-1.496;2023-04-03T05:06:53;7.28;;;2.45;;
73919;SDS011;62266;53.348;-1.496;2023-04-03T05:09:37;6.22;;;2.50;;
73919;SDS011;62266;53.348;-1.496;2023-04-03T05:12:22;6.73;;;2.10;;
73919;SDS011;62266;53.348;-1.496;2023-04-03T05:15:06;4.00;;;2.17;;
73919;SDS011;62266;53.348;-1.496;2023-04-03T05:17:51;10.00;;;2.75;;
73919;SDS011;62266;53.348;-1.496;2023-04-03T05:20:35;7.30;;;2.47;;
73919;SDS011;62266;53.348;-1.496;2023-04-03T05:23:20;5.25;;;2.30;;
73919;SDS011;62266;53.348;-1.496;2023-04-03T05:26:04;7.27;;;2.30;;
73919;SDS011;62266;53.348;-1.496;2023-04-03T05:28:49;3.83;;;2.22;;
73919;SDS011;62266;53.348;-1.496;2023-04-03T05:31:33;6.65;;;2.83;;
73919;SDS011;62266;53.348;-1.496;2023-04-03T05:34:17;6.57;;;2.20;;
73919;SDS011;62266;53.348;-1.496;2023-04-03T05:37:02;5.85;;;2.75;;
73919;SDS011;62266;53.348;-1.496;2023-04-03T05:39:49;5.97;;;2.77;;
73919;SDS011;62266;53.348;-1.496;2023-04-03T05:42:33;4.70;;;2.42;;
73919;SDS011;62266;53.348;-1.496;2023-04-03T05:45:18;4.18;;;2.10;;
73919;SDS011;62266;53.348;-1.496;2023-04-03T05:48:06;4.32;;;2.20;;
73919;SDS011;62266;53.348;-1.496;2023-04-03T05:50:50;5.03;;;2.35;;
73919;SDS011;62266;53.348;-1.496;2023-04-03T05:53:35;5.37;;;2.47;;
73919;SDS011;62266;53.348;-1.496;2023-04-03T05:56:25;5.95;;;2.22;;
73919;SDS011;62266;53.348;-1.496;2023-04-03T05:59:12;5.68;;;2.05;;
73919;SDS011;62266;53.348;-1.496;2023-04-03T06:01:57;6.35;;;2.10;;
73919;SDS011;62266;53.348;-1.496;2023-04-03T06:04:41;5.03;;;2.40;;
73919;SDS011;62266;53.348;-1.496;2023-04-03T06:07:26;7.33;;;2.40;;
73919;SDS011;62266;53.348;-1.496;2023-04-03T06:10:12;5.82;;;2.35;;
73919;SDS011;62266;53.348;-1.496;2023-04-03T06:12:57;3.60;;;2.35;;
73919;SDS011;62266;53.348;-1.496;2023-04-03T06:15:42;8.82;;;2.38;;
73919;SDS011;62266;53.348;-1.496;2023-04-03T06:18:26;5.28;;;2.33;;
73919;SDS011;62266;53.348;-1.496;2023-04-03T06:21:10;4.40;;;2.40;;
73919;SDS011;62266;53.348;-1.496;2023-04-03T06:23:55;7.32;;;2.80;;
73919;SDS011;62266;53.348;-1.496;2023-04-03T06:26:40;5.72;;;2.20;;
73919;SDS011;62266;53.348;-1.496;2023-04-03T06:29:25;8.55;;;3.28;;
73919;SDS011;62266;53.348;-1.496;2023-04-03T06:32:13;4.05;;;2.40;;
73919;SDS011;62266;53.348;-1.496;2023-04-03T06:34:58;7.87;;;2.70;;
73919;SDS011;62266;53.348;-1.496;2023-04-03T06:43:20;7.00;;;3.20;;
73919;SDS011;62266;53.348;-1.496;2023-04-03T06:46:20;7.50;;;2.95;;
73919;SDS011;62266;53.348;-1.496;2023-04-03T06:49:11;7.07;;;2.70;;
73919;SDS011;62266;53.348;-1.496;2023-04-03T06:52:16;5.82;;;3.10;;
73919;SDS011;62266;53.348;-1.496;2023-04-03T09:56:58;6.72;;;1.20;;
73919;SDS011;62266;53.348;-1.496;2023-04-03T09:59:57;4.57;;;1.20;;
73919;SDS011;62266;53.348;-1.496;2023-04-03T10:02:45;6.05;;;1.13;;
73919;SDS011;62266;53.348;-1.496;2023-04-03T10:05:35;3.92;;;1.13;;
73919;SDS011;62266;53.348;-1.496;2023-04-03T10:08:23;2.85;;;1.42;;
73919;SDS011;62266;53.348;-1.496;2023-04-03T10:11:15;4.40;;;1.33;;
73919;SDS011;62266;53.348;-1.496;2023-04-03T10:14:02;4.90;;;1.30;;
73919;SDS011;62266;53.348;-1.496;2023-04-03T10:16:49;5.97;;;1.30;;
73919;SDS011;62266;53.348;-1.496;2023-04-03T10:19:55;7.50;;;1.30;;
73919;SDS011;62266;53.348;-1.496;2023-04-03T10:23:00;4.63;;;1.27;;
73919;SDS011;62266;53.348;-1.496;2023-04-03T10:29:09;4.10;;;1.60;;
73919;SDS011;62266;53.348;-1.496;2023-04-03T10:47:29;5.45;;;1.70;;
73919;SDS011;62266;53.348;-1.496;2023-04-03T10:50:21;4.18;;;1.88;;
73919;SDS011;62266;53.348;-1.496;2023-04-03T10:53:26;5.90;;;1.67;;
73919;SDS011;62266;53.348;-1.496;2023-04-03T11:02:36;3.35;;;1.60;;
73919;SDS011;62266;53.348;-1.496;2023-04-03T11:08:50;5.82;;;1.42;;
73919;SDS011;62266;53.348;-1.496;2023-04-03T11:11:39;5.80;;;1.52;;
73919;SDS011;62266;53.348;-1.496;2023-04-03T11:14:28;4.80;;;1.73;;
73919;SDS011;62266;53.348;-1.496;2023-04-03T11:26:35;5.15;;;1.83;;
73919;SDS011;62266;53.348;-1.496;2023-04-03T11:29:15;4.43;;;1.77;;
73919;SDS011;62266;53.348;-1.496;2023-04-03T11:32:27;3.97;;;1.50;;
73919;SDS011;62266;53.348;-1.496;2023-04-03T11:35:17;3.75;;;1.10;;
73919;SDS011;62266;53.348;-1.496;2023-04-03T11:38:03;4.65;;;1.67;;
73919;SDS011;62266;53.348;-1.496;2023-04-03T11:40:50;5.47;;;1.92;;
73919;SDS011;62266;53.348;-1.496;2023-04-03T11:43:39;3.70;;;2.07;;
73919;SDS011;62266;53.348;-1.496;2023-04-03T11:49:56;3.55;;;1.80;;
73919;SDS011;62266;53.348;-1.496;2023-04-03T12:01:09;7.07;;;1.95;;
73919;SDS011;62266;53.348;-1.496;2023-04-03T12:04:05;4.20;;;1.77;;
73919;SDS011;62266;53.348;-1.496;2023-04-03T12:07:01;3.95;;;2.20;;
73919;SDS011;62266;53.348;-1.496;2023-04-03T12:09:57;2.70;;;1.40;;
73919;SDS011;62266;53.348;-1.496;2023-04-03T12:12:42;9.17;;;1.60;;
73919;SDS011;62266;53.348;-1.496;2023-04-03T12:15:41;5.63;;;1.80;;
73919;SDS011;62266;53.348;-1.496;2023-04-03T12:24:25;4.57;;;1.80;;
73919;SDS011;62266;53.348;-1.496;2023-04-03T12:30:25;4.38;;;1.90;;
73919;SDS011;62266;53.348;-1.496;2023-04-03T12:33:17;7.60;;;2.53;;
73919;SDS011;62266;53.348;-1.496;2023-04-03T12:36:08;5.57;;;2.10;;
73919;SDS011;62266;53.348;-1.496;2023-04-03T12:39:09;6.22;;;2.15;;
73919;SDS011;62266;53.348;-1.496;2023-04-03T12:42:05;6.47;;;1.80;;
73919;SDS011;62266;53.348;-1.496;2023-04-03T12:47:57;4.45;;;1.88;;
73919;SDS011;62266;53.348;-1.496;2023-04-03T12:50:41;4.85;;;2.10;;
73919;SDS011;62266;53.348;-1.496;2023-04-03T12:53:26;3.58;;;1.80;;
73919;SDS011;62266;53.348;-1.496;2023-04-03T12:56:18;4.73;;;1.80;;
73919;SDS011;62266;53.348;-1.496;2023-04-03T13:05:18;5.18;;;2.80;;
73919;SDS011;62266;53.348;-1.496;2023-04-03T13:08:05;5.88;;;1.98;;
73919;SDS011;62266;53.348;-1.496;2023-04-03T13:10:58;6.50;;;2.23;;
73919;SDS011;62266;53.348;-1.496;2023-04-03T13:13:58;7.90;;;2.00;;
73919;SDS011;62266;53.348;-1.496;2023-04-03T13:19:54;6.00;;;1.63;;
73919;SDS011;62266;53.348;-1.496;2023-04-03T13:22:40;5.40;;;1.95;;
73919;SDS011;62266;53.348;-1.496;2023-04-03T13:25:31;5.47;;;1.60;;
73919;SDS011;62266;53.348;-1.496;2023-04-03T13:28:19;3.95;;;1.77;;
73919;SDS011;62266;53.348;-1.496;2023-04-03T13:39:35;3.27;;;1.90;;
73919;SDS011;62266;53.348;-1.496;2023-04-03T13:42:23;5.18;;;1.85;;
73919;SDS011;62266;53.348;-1.496;2023-04-03T13:45:25;3.53;;;2.10;;
73919;SDS011;62266;53.348;-1.496;2023-04-03T13:48:18;8.80;;;2.90;;
73919;SDS011;62266;53.348;-1.496;2023-04-03T13:51:12;5.78;;;2.13;;
73919;SDS011;62266;53.348;-1.496;2023-04-03T13:54:12;4.83;;;2.20;;
73919;SDS011;62266;53.348;-1.496;2023-04-03T13:57:03;5.40;;;1.92;;
73919;SDS011;62266;53.348;-1.496;2023-04-03T13:59:55;4.05;;;2.05;;
73919;SDS011;62266;53.348;-1.496;2023-04-03T14:02:40;7.25;;;2.25;;
73919;SDS011;62266;53.348;-1.496;2023-04-03T14:05:24;6.07;;;2.40;;
73919;SDS011;62266;53.348;-1.496;2023-04-03T14:08:09;3.87;;;1.90;;
73919;SDS011;62266;53.348;-1.496;2023-04-03T14:10:56;9.10;;;2.42;;
73919;SDS011;62266;53.348;-1.496;2023-04-03T14:13:40;5.72;;;2.40;;
73919;SDS011;62266;53.348;-1.496;2023-04-03T14:16:25;5.97;;;1.90;;
73919;SDS011;62266;53.348;-1.496;2023-04-03T14:19:21;5.03;;;1.85;;
73919;SDS011;62266;53.348;-1.496;2023-04-03T14:22:22;4.03;;;2.07;;
73919;SDS011;62266;53.348;-1.496;2023-04-03T14:25:10;3.17;;;1.90;;
73919;SDS011;62266;53.348;-1.496;2023-04-03T14:27:55;5.05;;;2.22;;
73919;SDS011;62266;53.348;-1.496;2023-04-03T14:30:39;5.88;;;2.40;;
73919;SDS011;62266;53.348;-1.496;2023-04-03T14:33:23;4.55;;;2.30;;
73919;SDS011;62266;53.348;-1.496;2023-04-03T14:36:13;4.67;;;2.30;;
73919;SDS011;62266;53.348;-1.496;2023-04-03T14:39:05;6.30;;;2.03;;
73919;SDS011;62266;53.348;-1.496;2023-04-03T14:41:50;4.97;;;2.30;;
73919;SDS011;62266;53.348;-1.496;2023-04-03T14:44:34;5.75;;;2.10;;
73919;SDS011;62266;53.348;-1.496;2023-04-03T14:47:20;6.97;;;1.70;;
73919;SDS011;62266;53.348;-1.496;2023-04-03T14:50:06;4.43;;;1.93;;
73919;SDS011;62266;53.348;-1.496;2023-04-03T14:52:53;5.88;;;2.08;;
73919;SDS011;62266;53.348;-1.496;2023-04-03T14:55:45;4.90;;;1.88;;
73919;SDS011;62266;53.348;-1.496;2023-04-03T14:58:29;5.85;;;1.92;;
73919;SDS011;62266;53.348;-1.496;2023-04-03T15:01:18;6.15;;;1.90;;
73919;SDS011;62266;53.348;-1.496;2023-04-03T15:04:10;4.70;;;1.90;;
73919;SDS011;62266;53.348;-1.496;2023-04-03T15:06:58;4.32;;;1.60;;
73919;SDS011;62266;53.348;-1.496;2023-04-03T15:09:44;3.70;;;1.92;;
73919;SDS011;62266;53.348;-1.496;2023-04-03T15:12:29;5.43;;;1.77;;
73919;SDS011;62266;53.348;-1.496;2023-04-03T15:15:13;4.50;;;2.00;;
73919;SDS011;62266;53.348;-1.496;2023-04-03T15:17:59;6.00;;;2.00;;
73919;SDS011;62266;53.348;-1.496;2023-04-03T15:20:43;5.13;;;1.70;;
73919;SDS011;62266;53.348;-1.496;2023-04-03T15:23:28;2.08;;;1.60;;
73919;SDS011;62266;53.348;-1.496;2023-04-03T15:26:13;3.65;;;1.58;;
73919;SDS011;62266;53.348;-1.496;2023-04-03T15:28:58;5.60;;;2.00;;
73919;SDS011;62266;53.348;-1.496;2023-04-03T15:31:42;3.50;;;1.90;;
73919;SDS011;62266;53.348;-1.496;2023-04-03T15:34:27;3.22;;;1.67;;
73919;SDS011;62266;53.348;-1.496;2023-04-03T15:37:12;5.18;;;2.10;;
73919;SDS011;62266;53.348;-1.496;2023-04-03T15:39:56;4.28;;;1.65;;
73919;SDS011;62266;53.348;-1.496;2023-04-03T15:42:40;3.92;;;2.10;;
73919;SDS011;62266;53.348;-1.496;2023-04-03T15:45:28;6.63;;;2.27;;
73919;SDS011;62266;53.348;-1.496;2023-04-03T15:48:13;4.47;;;1.58;;
73919;SDS011;62266;53.348;-1.496;2023-04-03T15:50:59;4.68;;;2.20;;
73919;SDS011;62266;53.348;-1.496;2023-04-03T15:53:43;5.32;;;2.80;;
73919;SDS011;62266;53.348;-1.496;2023-04-03T15:56:28;4.13;;;2.00;;
73919;SDS011;62266;53.348;-1.496;2023-04-03T15:59:12;4.50;;;2.20;;
73919;SDS011;62266;53.348;-1.496;2023-04-03T16:01:56;3.60;;;1.85;;
73919;SDS011;62266;53.348;-1.496;2023-04-03T16:04:41;3.08;;;2.00;;
73919;SDS011;62266;53.348;-1.496;2023-04-03T16:07:28;5.45;;;1.98;;
73919;SDS011;62266;53.348;-1.496;2023-04-03T16:10:13;3.25;;;2.10;;
73919;SDS011;62266;53.348;-1.496;2023-04-03T16:13:00;5.80;;;2.00;;
73919;SDS011;62266;53.348;-1.496;2023-04-03T16:15:45;4.95;;;2.10;;
73919;SDS011;62266;53.348;-1.496;2023-04-03T16:18:29;6.32;;;2.50;;
73919;SDS011;62266;53.348;-1.496;2023-04-03T16:21:13;4.57;;;2.22;;
73919;SDS011;62266;53.348;-1.496;2023-04-03T16:23:59;6.15;;;2.28;;
73919;SDS011;62266;53.348;-1.496;2023-04-03T16:26:44;4.50;;;2.27;;
73919;SDS011;62266;53.348;-1.496;2023-04-03T16:29:28;3.63;;;2.20;;
73919;SDS011;62266;53.348;-1.496;2023-04-03T16:32:12;4.00;;;2.17;;
73919;SDS011;62266;53.348;-1.496;2023-04-03T16:34:57;4.72;;;2.10;;
73919;SDS011;62266;53.348;-1.496;2023-04-03T16:37:42;3.88;;;2.42;;
73919;SDS011;62266;53.348;-1.496;2023-04-03T16:40:30;5.07;;;2.47;;
73919;SDS011;62266;53.348;-1.496;2023-04-03T16:43:19;3.65;;;2.30;;
73919;SDS011;62266;53.348;-1.496;2023-04-03T16:46:12;4.88;;;2.53;;
73919;SDS011;62266;53.348;-1.496;2023-04-03T16:49:00;6.28;;;2.60;;
73919;SDS011;62266;53.348;-1.496;2023-04-03T16:51:47;5.32;;;2.70;;
73919;SDS011;62266;53.348;-1.496;2023-04-03T16:54:32;7.47;;;2.50;;
73919;SDS011;62266;53.348;-1.496;2023-04-03T16:57:39;4.13;;;2.10;;
73919;SDS011;62266;53.348;-1.496;2023-04-03T17:00:30;3.30;;;2.28;;
73919;SDS011;62266;53.348;-1.496;2023-04-03T17:03:21;6.70;;;2.60;;
73919;SDS011;62266;53.348;-1.496;2023-04-03T17:06:17;4.43;;;2.33;;
73919;SDS011;62266;53.348;-1.496;2023-04-03T17:09:04;6.40;;;2.40;;
73919;SDS011;62266;53.348;-1.496;2023-04-03T17:11:48;4.40;;;2.75;;
73919;SDS011;62266;53.348;-1.496;2023-04-03T17:14:33;6.53;;;3.03;;
73919;SDS011;62266;53.348;-1.496;2023-04-03T17:17:22;4.53;;;2.90;;
73919;SDS011;62266;53.348;-1.496;2023-04-03T17:20:15;5.40;;;2.63;;
73919;SDS011;62266;53.348;-1.496;2023-04-03T17:23:02;4.73;;;2.37;;
73919;SDS011;62266;53.348;-1.496;2023-04-03T17:25:47;5.25;;;2.63;;
73919;SDS011;62266;53.348;-1.496;2023-04-03T17:28:31;6.03;;;2.40;;
73919;SDS011;62266;53.348;-1.496;2023-04-03T17:31:16;4.82;;;2.60;;
73919;SDS011;62266;53.348;-1.496;2023-04-03T17:34:00;4.55;;;2.45;;
73919;SDS011;62266;53.348;-1.496;2023-04-03T17:36:44;3.53;;;2.50;;
73919;SDS011;62266;53.348;-1.496;2023-04-03T17:39:28;5.55;;;2.53;;
73919;SDS011;62266;53.348;-1.496;2023-04-03T17:42:13;5.22;;;2.85;;
73919;SDS011;62266;53.348;-1.496;2023-04-03T17:44:58;5.82;;;2.85;;
73919;SDS011;62266;53.348;-1.496;2023-04-03T17:47:43;6.32;;;2.85;;
73919;SDS011;62266;53.348;-1.496;2023-04-03T17:50:29;6.33;;;2.90;;
73919;SDS011;62266;53.348;-1.496;2023-04-03T17:53:13;5.32;;;2.70;;
73919;SDS011;62266;53.348;-1.496;2023-04-03T17:55:57;4.60;;;2.92;;
73919;SDS011;62266;53.348;-1.496;2023-04-03T20:59:35;9.07;;;5.63;;
73919;SDS011;62266;53.348;-1.496;2023-04-03T21:02:21;8.77;;;5.30;;
73919;SDS011;62266;53.348;-1.496;2023-04-03T21:05:07;9.82;;;5.93;;
73919;SDS011;62266;53.348;-1.496;2023-04-03T21:20:50;10.95;;;6.20;;
73919;SDS011;62266;53.348;-1.496;2023-04-03T21:23:34;10.32;;;6.28;;
73919;SDS011;62266;53.348;-1.496;2023-04-03T21:26:19;11.02;;;6.72;;
73919;SDS011;62266;53.348;-1.496;2023-04-03T21:29:05;14.17;;;6.47;;
73919;SDS011;62266;53.348;-1.496;2023-04-03T21:31:54;12.73;;;6.55;;
73919;SDS011;62266;53.348;-1.496;2023-04-03T21:34:41;9.30;;;5.57;;
73919;SDS011;62266;53.348;-1.496;2023-04-03T21:37:25;13.10;;;6.18;;
73919;SDS011;62266;53.348;-1.496;2023-04-03T21:40:09;8.73;;;6.07;;
73919;SDS011;62266;53.348;-1.496;2023-04-03T21:42:54;12.57;;;6.30;;
73919;SDS011;62266;53.348;-1.496;2023-04-03T21:45:38;12.48;;;6.55;;
73919;SDS011;62266;53.348;-1.496;2023-04-03T21:48:23;12.57;;;6.90;;
73919;SDS011;62266;53.348;-1.496;2023-04-03T21:51:07;11.65;;;5.97;;
73919;SDS011;62266;53.348;-1.496;2023-04-03T21:53:51;12.43;;;5.80;;
73919;SDS011;62266;53.348;-1.496;2023-04-03T21:56:36;9.60;;;5.60;;
73919;SDS011;62266;53.348;-1.496;2023-04-03T21:59:20;9.68;;;5.70;;
73919;SDS011;62266;53.348;-1.496;2023-04-03T22:02:04;9.15;;;5.97;;
73919;SDS011;62266;53.348;-1.496;2023-04-03T22:04:48;14.57;;;6.28;;
73919;SDS011;62266;53.348;-1.496;2023-04-03T22:07:32;10.30;;;5.88;;
73919;SDS011;62266;53.348;-1.496;2023-04-03T22:10:16;11.43;;;5.20;;
73919;SDS011;62266;53.348;-1.496;2023-04-03T22:13:01;11.23;;;5.20;;
73919;SDS011;62266;53.348;-1.496;2023-04-03T22:15:48;10.55;;;4.43;;
73919;SDS011;62266;53.348;-1.496;2023-04-03T22:18:32;12.55;;;4.50;;
73919;SDS011;62266;53.348;-1.496;2023-04-03T22:21:17;11.98;;;4.55;;
73919;SDS011;62266;53.348;-1.496;2023-04-03T22:24:01;8.33;;;4.20;;
73919;SDS011;62266;53.348;-1.496;2023-04-03T22:26:46;8.18;;;5.20;;
73919;SDS011;62266;53.348;-1.496;2023-04-03T22:29:32;10.02;;;5.50;;
73919;SDS011;62266;53.348;-1.496;2023-04-03T22:32:15;11.80;;;5.80;;
73919;SDS011;62266;53.348;-1.496;2023-04-03T22:35:00;7.15;;;5.20;;
73919;SDS011;62266;53.348;-1.496;2023-04-03T22:37:44;10.57;;;5.60;;
73919;SDS011;62266;53.348;-1.496;2023-04-03T22:40:28;11.27;;;4.93;;
73919;SDS011;62266;53.348;-1.496;2023-04-03T22:43:12;9.50;;;5.00;;
73919;SDS011;62266;53.348;-1.496;2023-04-03T22:45:56;8.18;;;5.22;;
73919;SDS011;62266;53.348;-1.496;2023-04-03T22:48:42;10.30;;;5.20;;
73919;SDS011;62266;53.348;-1.496;2023-04-03T22:51:27;12.20;;;4.80;;
73919;SDS011;62266;53.348;-1.496;2023-04-03T22:54:12;11.75;;;5.63;;
73919;SDS011;62266;53.348;-1.496;2023-04-03T22:56:58;10.10;;;5.35;;
73919;SDS011;62266;53.348;-1.496;2023-04-03T22:59:45;7.38;;;4.90;;
73919;SDS011;62266;53.348;-1.496;2023-04-03T23:02:30;8.20;;;4.40;;
73919;SDS011;62266;53.348;-1.496;2023-04-03T23:05:15;13.20;;;5.00;;
73919;SDS011;62266;53.348;-1.496;2023-04-03T23:07:59;12.85;;;4.75;;
73919;SDS011;62266;53.348;-1.496;2023-04-03T23:10:44;7.85;;;4.30;;
73919;SDS011;62266;53.348;-1.496;2023-04-03T23:13:28;7.63;;;3.92;;
73919;SDS011;62266;53.348;-1.496;2023-04-03T23:16:12;7.78;;;4.22;;
73919;SDS011;62266;53.348;-1.496;2023-04-03T23:18:56;12.17;;;4.70;;
73919;SDS011;62266;53.348;-1.496;2023-04-03T23:21:40;6.38;;;3.70;;
73919;SDS011;62266;53.348;-1.496;2023-04-03T23:24:25;8.88;;;4.70;;
73919;SDS011;62266;53.348;-1.496;2023-04-03T23:27:08;10.05;;;4.30;;
73919;SDS011;62266;53.348;-1.496;2023-04-03T23:29:53;9.90;;;4.35;;
73919;SDS011;62266;53.348;-1.496;2023-04-03T23:32:37;7.10;;;4.47;;
73919;SDS011;62266;53.348;-1.496;2023-04-03T23:35:21;9.57;;;3.90;;
73919;SDS011;62266;53.348;-1.496;2023-04-03T23:38:08;8.13;;;4.15;;
73919;SDS011;62266;53.348;-1.496;2023-04-03T23:40:52;8.82;;;4.63;;
73919;SDS011;62266;53.348;-1.496;2023-04-03T23:43:36;10.73;;;5.40;;
73919;SDS011;62266;53.348;-1.496;2023-04-03T23:46:24;16.47;;;5.53;;
73919;SDS011;62266;53.348;-1.496;2023-04-03T23:49:08;11.07;;;5.70;;
73919;SDS011;62266;53.348;-1.496;2023-04-03T23:51:53;8.73;;;4.60;;
73919;SDS011;62266;53.348;-1.496;2023-04-03T23:54:39;9.05;;;4.45;;
73919;SDS011;62266;53.348;-1.496;2023-04-03T23:57:26;10.00;;;4.95;;
